createdAt,value
2023-02-14T00:01:10.626Z,44.00
2023-02-14T00:03:39.417Z,42.53
2023-02-14T00:06:07.960Z,43.35
2023-02-14T00:08:35.791Z,44.25
2023-02-14T00:11:04.309Z,45.00
2023-02-14T00:13:31.674Z,43.10
2023-02-14T00:15:59.037Z,43.45
2023-02-14T00:18:45.386Z,43.17
2023-02-14T00:21:12.717Z,44.67
2023-02-14T00:23:40.074Z,43.83
2023-02-14T00:26:14.193Z,43.92
2023-02-14T00:28:43.398Z,44.22
2023-02-14T00:31:11.151Z,44.58
2023-02-14T00:33:38.572Z,43.80
2023-02-14T00:36:07.533Z,44.95
2023-02-14T00:38:35.238Z,45.05
2023-02-14T00:41:03.210Z,43.45
2023-02-14T00:43:30.796Z,45.10
2023-02-14T00:45:58.106Z,45.45
2023-02-14T00:48:25.660Z,44.20
2023-02-14T00:50:52.986Z,43.67
2023-02-14T00:53:20.501Z,46.20
2023-02-14T00:55:47.848Z,45.78
2023-02-14T00:58:15.564Z,44.97
2023-02-14T01:00:42.885Z,44.55
2023-02-14T01:03:10.246Z,46.25
2023-02-14T01:05:37.512Z,44.63
2023-02-14T01:08:05.419Z,45.97
2023-02-14T01:10:32.695Z,46.63
2023-02-14T01:13:00.004Z,46.30
2023-02-14T01:15:28.718Z,47.13
2023-02-14T01:17:56.145Z,45.42
2023-02-14T01:20:23.376Z,46.17
2023-02-14T01:22:50.646Z,46.42
2023-02-14T01:25:18.163Z,45.47
2023-02-14T01:27:45.501Z,47.90
2023-02-14T01:30:14.551Z,47.33
2023-02-14T01:32:42.474Z,46.13
2023-02-14T01:35:10.467Z,46.22
2023-02-14T01:37:37.797Z,45.85
2023-02-14T01:40:08.332Z,46.72
2023-02-14T01:42:36.246Z,47.00
2023-02-14T01:45:08.931Z,46.80
2023-02-14T01:47:39.277Z,48.10
2023-02-14T01:50:13.885Z,47.70
2023-02-14T01:52:47.965Z,49.75
2023-02-14T01:55:28.612Z,50.22
2023-02-14T01:58:01.542Z,48.30
2023-02-14T02:00:47.594Z,48.08
2023-02-14T02:03:16.808Z,48.95
2023-02-14T02:05:52.585Z,50.13
2023-02-14T02:08:20.414Z,48.75
2023-02-14T02:10:47.616Z,49.85
2023-02-14T02:13:18.047Z,49.05
2023-02-14T02:16:03.355Z,51.45
2023-02-14T02:19:17.275Z,50.45
2023-02-14T02:21:59.680Z,50.38
2023-02-14T02:24:30.003Z,50.28
2023-02-14T02:27:22.055Z,49.03
2023-02-14T02:30:25.152Z,48.75
2023-02-14T02:32:53.665Z,49.53
2023-02-14T02:35:42.015Z,50.63
2023-02-14T02:38:36.893Z,51.20
2023-02-14T02:41:18.573Z,49.55
2023-02-14T02:44:13.053Z,51.33
2023-02-14T02:46:55.665Z,49.97
2023-02-14T02:49:48.314Z,52.22
2023-02-14T02:52:41.642Z,52.35
2023-02-14T02:55:16.407Z,51.13
2023-02-14T02:57:44.473Z,51.00
2023-02-14T03:00:13.690Z,51.05
2023-02-14T03:03:03.753Z,51.70
2023-02-14T03:05:32.355Z,51.03
2023-02-14T03:07:59.780Z,52.47
2023-02-14T03:10:31.805Z,51.38
2023-02-14T03:13:36.778Z,52.58
2023-02-14T03:16:26.167Z,51.33
2023-02-14T03:20:00.471Z,50.80
2023-02-14T03:22:48.498Z,51.10
2023-02-14T03:25:32.288Z,52.45
2023-02-14T03:28:15.182Z,54.05
2023-02-14T03:30:48.548Z,50.65
2023-02-14T03:33:23.193Z,49.75
2023-02-14T03:35:55.249Z,51.40
2023-02-14T03:38:27.527Z,51.58
2023-02-14T03:41:01.935Z,52.85
2023-02-14T03:43:35.917Z,53.10
2023-02-14T03:46:03.272Z,52.60
2023-02-14T03:48:32.311Z,52.22
2023-02-14T03:51:00.657Z,50.97
2023-02-14T03:53:31.020Z,51.15
2023-02-14T03:56:13.390Z,52.10
2023-02-14T03:58:45.188Z,53.53
2023-02-14T04:01:36.170Z,54.22
2023-02-14T04:04:04.677Z,52.40
2023-02-14T04:06:31.969Z,52.03
2023-02-14T04:08:59.399Z,52.50
2023-02-14T04:11:27.270Z,52.65
2023-02-14T04:13:54.810Z,50.85
2023-02-14T04:16:22.147Z,51.75
2023-02-14T04:19:08.078Z,50.58
2023-02-14T04:21:35.375Z,51.78
2023-02-14T04:24:02.711Z,51.95
2023-02-14T04:26:30.129Z,51.72
2023-02-14T04:28:57.558Z,50.58
2023-02-14T04:31:24.971Z,51.25
2023-02-14T04:33:52.344Z,49.92
2023-02-14T04:36:19.686Z,51.03
2023-02-14T04:38:46.957Z,52.58
2023-02-14T04:41:14.316Z,51.45
2023-02-14T04:43:43.106Z,50.65
2023-02-14T04:46:10.574Z,51.47
2023-02-14T04:48:37.902Z,50.90
2023-02-14T04:51:05.359Z,51.13
2023-02-14T04:53:32.618Z,51.38
2023-02-14T04:56:00.002Z,50.67
2023-02-14T04:58:27.465Z,51.33
2023-02-14T05:00:54.809Z,51.17
2023-02-14T05:03:22.108Z,50.60
2023-02-14T05:05:49.501Z,50.05
2023-02-14T05:08:17.049Z,50.88
2023-02-14T05:10:44.326Z,51.03
2023-02-14T05:13:11.719Z,52.58
2023-02-14T05:15:38.960Z,52.08
2023-02-14T05:18:06.447Z,50.70
2023-02-14T05:20:34.223Z,52.33
2023-02-14T05:23:06.346Z,49.58
2023-02-14T05:25:34.356Z,50.92
2023-02-14T05:28:01.877Z,50.90
2023-02-14T05:30:30.339Z,52.47
2023-02-14T05:32:57.787Z,50.47
2023-02-14T05:35:25.202Z,54.58
2023-02-14T05:37:52.501Z,52.67
2023-02-14T05:40:19.918Z,51.45
2023-02-14T05:42:47.153Z,52.28
2023-02-14T05:45:14.713Z,51.83
2023-02-14T05:47:42.097Z,50.80
2023-02-14T05:50:09.525Z,52.78
2023-02-14T05:52:37.792Z,51.00
2023-02-14T05:55:05.632Z,54.42
2023-02-14T05:57:36.030Z,54.08
2023-02-14T06:00:06.540Z,54.95
2023-02-14T06:02:39.750Z,53.75
2023-02-14T06:05:07.712Z,53.65
2023-02-14T06:07:35.152Z,55.85
2023-02-14T06:10:02.488Z,56.13
2023-02-14T06:12:32.973Z,56.88
2023-02-14T06:15:00.357Z,57.72
2023-02-14T06:17:27.738Z,55.47
2023-02-14T06:19:54.995Z,56.65
2023-02-14T06:22:22.316Z,55.88
2023-02-14T06:24:50.014Z,56.33
2023-02-14T06:27:17.320Z,54.58
2023-02-14T06:29:44.683Z,56.22
2023-02-14T06:32:12.132Z,53.33
2023-02-14T06:34:40.918Z,55.00
2023-02-14T06:37:08.241Z,55.30
2023-02-14T06:39:35.593Z,56.55
2023-02-14T06:42:02.941Z,57.33
2023-02-14T06:44:30.446Z,56.15
2023-02-14T06:46:57.724Z,55.10
2023-02-14T06:49:25.158Z,55.92
2023-02-14T06:51:52.602Z,55.67
2023-02-14T06:54:19.886Z,55.58
2023-02-14T06:56:47.480Z,56.38
2023-02-14T06:59:14.825Z,56.47
2023-02-14T07:01:42.174Z,57.50
2023-02-14T07:04:09.676Z,58.40
2023-02-14T07:06:37.753Z,56.08
2023-02-14T07:09:05.574Z,56.22
2023-02-14T07:11:32.979Z,57.05
2023-02-14T07:14:00.296Z,58.35
2023-02-14T07:16:27.672Z,57.20
2023-02-14T07:18:54.987Z,57.15
2023-02-14T07:21:22.324Z,57.75
2023-02-14T07:23:50.195Z,56.78
2023-02-14T07:26:18.344Z,58.33
2023-02-14T07:28:46.712Z,56.30
2023-02-14T07:31:14.192Z,56.70
2023-02-14T07:33:41.817Z,58.17
2023-02-14T07:36:09.675Z,59.40
2023-02-14T07:38:37.269Z,64.22
2023-02-14T07:41:04.694Z,90.25
2023-02-14T07:43:34.490Z,73.10
2023-02-14T07:46:02.468Z,59.50
2023-02-14T07:48:31.953Z,59.47
2023-02-14T07:51:01.863Z,59.13
2023-02-14T07:53:29.272Z,60.45
2023-02-14T07:55:56.855Z,59.60
2023-02-14T07:58:24.141Z,59.97
2023-02-14T08:00:51.477Z,61.42
2023-02-14T08:03:19.134Z,60.33
2023-02-14T08:05:57.056Z,59.78
2023-02-14T08:08:28.908Z,58.28
2023-02-14T08:10:57.001Z,57.95
2023-02-14T08:13:24.345Z,58.88
2023-02-14T08:16:07.740Z,60.40
2023-02-14T08:18:37.942Z,60.97
2023-02-14T08:23:33.879Z,59.03
2023-02-14T08:26:01.664Z,61.60
2023-02-14T08:28:29.253Z,62.47
2023-02-14T08:30:56.668Z,63.33
2023-02-14T08:33:24.057Z,62.33
2023-02-14T08:35:52.210Z,62.15
2023-02-14T08:38:19.599Z,62.50
2023-02-14T08:40:47.381Z,63.75
2023-02-14T08:43:15.349Z,65.13
2023-02-14T08:45:43.019Z,66.30
2023-02-14T08:48:12.241Z,63.50
2023-02-14T08:50:40.285Z,63.85
2023-02-14T08:53:12.257Z,64.30
2023-02-14T08:55:40.228Z,62.63
2023-02-14T08:58:07.928Z,63.80
2023-02-14T09:00:35.560Z,63.55
2023-02-14T09:03:03.032Z,69.65
2023-02-14T09:05:32.018Z,67.03
2023-02-14T09:07:59.674Z,64.30
2023-02-14T09:10:28.559Z,66.25
2023-02-14T09:12:58.560Z,64.18
2023-02-14T09:15:26.435Z,65.45
2023-02-14T09:17:53.743Z,64.65
2023-02-14T09:20:25.274Z,66.13
2023-02-14T09:22:55.860Z,66.47
2023-02-14T09:25:26.254Z,63.17
2023-02-14T09:27:53.694Z,65.88
2023-02-14T09:30:21.232Z,65.82
2023-02-14T09:32:48.887Z,62.55
2023-02-14T09:35:34.710Z,65.25
2023-02-14T09:38:18.310Z,65.78
2023-02-14T09:40:47.054Z,65.28
2023-02-14T09:43:24.691Z,66.88
2023-02-14T09:45:54.864Z,66.05
2023-02-14T09:48:32.470Z,66.13
2023-02-14T09:51:03.361Z,65.13
2023-02-14T09:53:35.092Z,69.15
2023-02-14T09:56:21.151Z,67.28
2023-02-14T09:59:07.368Z,66.82
2023-02-14T10:01:43.714Z,66.40
2023-02-14T10:04:23.018Z,66.20
2023-02-14T10:07:01.732Z,64.50
2023-02-14T10:09:43.095Z,66.22
2023-02-14T10:12:16.666Z,62.38
2023-02-14T10:14:44.114Z,64.50
2023-02-14T10:17:25.324Z,63.90
2023-02-14T10:19:56.649Z,60.85
2023-02-14T10:22:30.225Z,63.88
2023-02-14T10:25:14.425Z,62.10
2023-02-14T10:27:47.286Z,63.58
2023-02-14T10:30:21.573Z,62.83
2023-02-14T10:32:53.583Z,65.10
2023-02-14T10:35:44.116Z,65.35
2023-02-14T10:38:20.602Z,64.93
2023-02-14T10:41:10.151Z,64.07
2023-02-14T10:43:43.747Z,66.32
2023-02-14T10:46:21.268Z,65.43
2023-02-14T10:49:13.402Z,66.90
2023-02-14T10:51:51.232Z,64.00
2023-02-14T10:54:25.977Z,64.60
2023-02-14T10:56:58.699Z,65.85
2023-02-14T10:59:39.780Z,63.85
2023-02-14T11:02:11.155Z,65.03
2023-02-14T11:04:38.495Z,64.90
2023-02-14T11:07:13.081Z,62.65
2023-02-14T11:09:40.337Z,62.63
2023-02-14T11:12:08.724Z,63.20
2023-02-14T11:14:40.563Z,63.08
2023-02-14T11:17:28.153Z,61.72
2023-02-14T11:20:02.590Z,60.65
2023-02-14T11:22:31.282Z,58.25
2023-02-14T11:25:21.508Z,56.42
2023-02-14T11:28:00.994Z,56.03
2023-02-14T11:30:33.450Z,57.25
2023-02-14T11:33:01.109Z,56.60
2023-02-14T11:35:34.550Z,55.25
2023-02-14T11:38:06.704Z,53.85
2023-02-14T11:40:38.932Z,54.17
2023-02-14T11:43:14.622Z,52.47
2023-02-14T11:45:49.447Z,52.33
2023-02-14T11:48:31.434Z,51.25
2023-02-14T11:51:15.912Z,52.58
2023-02-14T11:53:56.343Z,51.63
2023-02-14T11:56:24.327Z,49.22
2023-02-14T11:59:03.779Z,51.22
2023-02-14T12:01:33.918Z,50.35
2023-02-14T12:06:32.478Z,49.65
2023-02-14T12:09:35.173Z,48.63
2023-02-14T12:12:05.020Z,49.55
2023-02-14T12:14:34.464Z,48.00
2023-02-14T12:17:05.818Z,47.08
2023-02-14T12:19:41.167Z,44.95
2023-02-14T12:22:13.298Z,46.13
2023-02-14T12:25:07.576Z,43.45
2023-02-14T12:27:48.459Z,43.70
2023-02-14T12:30:21.367Z,42.67
2023-02-14T12:32:51.312Z,43.15
2023-02-14T12:35:25.815Z,42.05
2023-02-14T12:38:19.346Z,40.97
2023-02-14T12:41:11.882Z,39.38
2023-02-14T12:43:50.875Z,41.22
2023-02-14T12:46:37.079Z,39.90
2023-02-14T12:49:36.369Z,38.47
2023-02-14T12:52:25.475Z,39.80
2023-02-14T12:54:55.762Z,40.08
2023-02-14T12:57:48.076Z,39.42
2023-02-14T13:00:33.997Z,39.13
2023-02-14T13:03:14.679Z,39.40
2023-02-14T13:05:48.250Z,38.08
2023-02-14T13:08:49.374Z,38.30
2023-02-14T13:11:41.054Z,38.72
2023-02-14T13:14:29.616Z,37.38
2023-02-14T13:17:00.860Z,38.45
2023-02-14T13:19:31.228Z,37.92
2023-02-14T13:21:59.906Z,38.70
2023-02-14T13:24:36.813Z,36.35
2023-02-14T13:27:07.415Z,36.65
2023-02-14T13:29:43.275Z,37.58
2023-02-14T13:32:13.305Z,36.72
2023-02-14T13:37:16.016Z,36.60
2023-02-14T13:39:47.229Z,35.55
2023-02-14T13:42:52.642Z,35.53
2023-02-14T13:45:35.303Z,36.30
2023-02-14T13:48:11.122Z,34.50
2023-02-14T13:51:05.626Z,34.00
2023-02-14T13:53:40.200Z,34.85
2023-02-14T13:56:15.336Z,35.28
2023-02-14T13:58:51.127Z,34.42
2023-02-14T14:01:42.922Z,33.25
2023-02-14T14:04:28.826Z,33.58
2023-02-14T14:07:05.347Z,32.88
2023-02-14T14:09:42.004Z,31.00
2023-02-14T14:12:25.585Z,30.30
2023-02-14T14:15:05.767Z,30.52
2023-02-14T14:17:39.419Z,30.98
2023-02-14T14:20:15.781Z,31.25
2023-02-14T14:22:53.733Z,30.85
2023-02-14T14:25:41.118Z,31.40
2023-02-14T14:28:13.350Z,30.90
2023-02-14T14:30:44.747Z,30.48
2023-02-14T14:33:25.979Z,30.95
2023-02-14T14:36:08.467Z,29.52
2023-02-14T14:38:47.189Z,31.35
2023-02-14T14:41:14.591Z,30.27
2023-02-14T14:43:42.352Z,29.33
2023-02-14T14:46:12.645Z,29.10
2023-02-14T14:51:09.868Z,30.48
2023-02-14T14:53:44.541Z,31.40
2023-02-14T14:56:14.356Z,31.33
2023-02-14T14:58:42.111Z,31.65
2023-02-14T15:01:36.436Z,32.00
2023-02-14T15:04:17.262Z,31.55
2023-02-14T15:06:45.437Z,30.50
2023-02-14T15:09:45.079Z,30.13
2023-02-14T15:12:39.971Z,29.92
2023-02-14T15:15:10.119Z,29.88
2023-02-14T15:20:08.402Z,28.40
2023-02-14T15:22:45.613Z,27.27
2023-02-14T15:25:21.226Z,27.38
2023-02-14T15:27:48.711Z,28.13
2023-02-14T15:30:19.414Z,27.20
2023-02-14T15:32:48.262Z,27.27
2023-02-14T15:35:17.579Z,27.52
2023-02-14T15:37:46.039Z,27.43
2023-02-14T15:40:25.090Z,27.45
2023-02-14T15:42:59.052Z,26.95
2023-02-14T15:45:27.687Z,25.65
2023-02-14T15:47:57.896Z,27.80
2023-02-14T15:53:27.896Z,28.33
2023-02-14T15:56:05.791Z,28.30
2023-02-14T15:58:33.649Z,29.05
2023-02-14T16:01:01.495Z,29.60
2023-02-14T16:03:37.054Z,31.00
2023-02-14T16:06:07.483Z,30.15
2023-02-14T16:08:37.341Z,30.20
2023-02-14T16:11:07.159Z,29.83
2023-02-14T16:13:36.803Z,29.70
2023-02-14T16:16:06.741Z,30.27
2023-02-14T16:18:48.198Z,30.67
2023-02-14T16:21:33.240Z,29.15
2023-02-14T16:24:09.361Z,29.35
2023-02-14T16:26:39.318Z,30.15
2023-02-14T16:29:08.500Z,29.27
2023-02-14T16:32:15.195Z,29.63
2023-02-14T16:34:42.258Z,29.77
2023-02-14T16:37:19.509Z,30.83
2023-02-14T16:39:47.117Z,30.15
2023-02-14T16:42:17.008Z,29.65
2023-02-14T16:44:45.769Z,30.20
2023-02-14T16:47:14.020Z,29.77
2023-02-14T16:49:41.984Z,28.98
2023-02-14T16:52:35.535Z,30.95
2023-02-14T16:55:02.820Z,29.88
2023-02-14T16:57:33.397Z,30.85
2023-02-14T17:00:01.363Z,30.15
2023-02-14T17:02:28.846Z,30.05
2023-02-14T17:04:56.506Z,29.60
2023-02-14T17:07:23.905Z,29.27
2023-02-14T17:09:55.538Z,28.50
2023-02-14T17:12:25.634Z,29.05
2023-02-14T17:14:55.732Z,28.75
2023-02-14T17:19:52.654Z,28.83
2023-02-14T17:22:20.671Z,30.73
2023-02-14T17:24:48.144Z,29.17
2023-02-14T17:27:15.587Z,27.65
2023-02-14T17:29:42.888Z,28.25
2023-02-14T17:32:14.088Z,29.33
2023-02-14T17:34:41.709Z,30.67
2023-02-14T17:37:09.098Z,29.00
2023-02-14T17:39:36.444Z,28.48
2023-02-14T17:42:03.865Z,29.52
2023-02-14T17:44:36.011Z,28.08
2023-02-14T17:47:04.917Z,28.92
2023-02-14T17:49:32.470Z,29.50
2023-02-14T17:51:59.749Z,29.20
2023-02-14T17:54:26.984Z,29.02
2023-02-14T17:56:54.595Z,29.20
2023-02-14T17:59:21.979Z,29.52
2023-02-14T18:01:50.131Z,30.52
2023-02-14T18:04:17.432Z,30.63
2023-02-14T18:06:44.834Z,30.70
2023-02-14T18:09:12.166Z,31.08
2023-02-14T18:11:40.414Z,32.78
2023-02-14T18:14:08.370Z,32.97
2023-02-14T18:16:38.038Z,33.80
2023-02-14T18:19:06.844Z,35.35
2023-02-14T18:21:36.041Z,34.03
2023-02-14T18:24:04.025Z,38.17
2023-02-14T18:26:31.551Z,52.45
2023-02-14T18:28:59.341Z,32.95
2023-02-14T18:31:26.787Z,34.55
2023-02-14T18:33:55.096Z,34.17
2023-02-14T18:36:24.349Z,32.72
2023-02-14T18:38:52.040Z,33.33
2023-02-14T18:41:19.828Z,32.40
2023-02-14T18:43:48.929Z,33.15
2023-02-14T18:46:27.476Z,33.65
2023-02-14T18:48:56.241Z,32.63
2023-02-14T18:51:30.062Z,33.83
2023-02-14T18:53:59.558Z,35.40
2023-02-14T18:56:29.915Z,34.78
2023-02-14T18:59:02.515Z,36.03
2023-02-14T19:01:36.838Z,34.85
2023-02-14T19:04:07.763Z,35.70
2023-02-14T19:06:35.942Z,38.03
2023-02-14T19:09:04.100Z,36.25
2023-02-14T19:11:31.791Z,38.03
2023-02-14T19:14:00.310Z,39.47
2023-02-14T19:16:32.414Z,38.55
2023-02-14T19:19:02.513Z,39.35
2023-02-14T19:23:58.933Z,38.15
2023-02-14T19:26:29.625Z,38.60
2023-02-14T19:28:59.480Z,39.80
2023-02-14T19:31:27.991Z,40.22
2023-02-14T19:33:55.558Z,40.22
2023-02-14T19:36:23.600Z,38.70
2023-02-14T19:38:52.895Z,40.47
2023-02-14T19:41:26.148Z,39.25
2023-02-14T19:43:56.251Z,39.63
2023-02-14T19:46:24.413Z,41.08
2023-02-14T19:48:52.292Z,41.67
2023-02-14T19:51:25.804Z,41.03
2023-02-14T19:53:55.467Z,42.28
2023-02-14T19:56:25.205Z,41.20
2023-02-14T19:58:53.098Z,40.90
2023-02-14T20:01:26.169Z,40.85
2023-02-14T20:03:53.632Z,39.33
2023-02-14T20:06:22.185Z,38.70
2023-02-14T20:08:50.011Z,38.38
2023-02-14T20:11:36.340Z,39.13
2023-02-14T20:14:04.860Z,36.78
2023-02-14T20:16:33.888Z,37.63
2023-02-14T20:19:07.945Z,35.83
2023-02-14T20:21:37.953Z,36.40
2023-02-14T20:24:06.185Z,36.50
2023-02-14T20:26:35.016Z,34.92
2023-02-14T20:29:04.208Z,36.75
2023-02-14T20:31:33.209Z,37.72
2023-02-14T20:34:00.987Z,36.63
2023-02-14T20:36:28.971Z,35.83
2023-02-14T20:38:57.192Z,37.28
2023-02-14T20:41:26.157Z,37.15
2023-02-14T20:43:56.571Z,37.20
2023-02-14T20:46:27.112Z,38.08
2023-02-14T20:48:54.551Z,36.22
2023-02-14T20:51:22.842Z,37.38
2023-02-14T20:53:51.198Z,38.47
2023-02-14T20:56:19.197Z,39.42
2023-02-14T20:58:46.580Z,39.88
2023-02-14T21:01:16.484Z,38.78
2023-02-14T21:03:50.420Z,37.97
2023-02-14T21:06:19.680Z,38.70
2023-02-14T21:08:49.503Z,37.63
2023-02-14T21:11:18.529Z,38.25
2023-02-14T21:13:46.432Z,38.00
2023-02-14T21:16:16.008Z,37.80
2023-02-14T21:18:47.982Z,37.85
2023-02-14T21:21:19.134Z,38.20
2023-02-14T21:23:50.289Z,38.92
2023-02-14T21:26:17.912Z,38.83
2023-02-14T21:28:45.492Z,39.65
2023-02-14T21:31:15.882Z,39.28
2023-02-14T21:33:43.381Z,42.70
2023-02-14T21:36:15.818Z,41.85
2023-02-14T21:38:44.012Z,43.80
2023-02-14T21:41:17.595Z,43.55
2023-02-14T21:43:46.446Z,43.95
2023-02-14T21:46:16.323Z,40.92
2023-02-14T21:49:02.798Z,43.28
2023-02-14T21:51:31.348Z,42.15
2023-02-14T21:54:01.659Z,44.53
2023-02-14T21:56:29.063Z,43.72
2023-02-14T21:58:56.793Z,42.22
2023-02-14T22:01:26.425Z,41.72
2023-02-14T22:03:54.417Z,42.65
2023-02-14T22:06:22.335Z,42.25
2023-02-14T22:08:54.314Z,42.15
2023-02-14T22:11:22.322Z,41.75
2023-02-14T22:13:49.735Z,40.28
2023-02-14T22:16:18.996Z,41.35
2023-02-14T22:18:47.963Z,42.13
2023-02-14T22:21:24.194Z,43.53
2023-02-14T22:23:51.825Z,42.97
2023-02-14T22:26:19.112Z,44.45
2023-02-14T22:28:47.912Z,46.03
2023-02-14T22:31:17.254Z,44.90
2023-02-14T22:33:45.131Z,46.13
2023-02-14T22:36:12.793Z,46.67
2023-02-14T22:38:40.655Z,46.22
2023-02-14T22:41:12.188Z,46.05
2023-02-14T22:43:40.094Z,46.85
2023-02-14T22:46:09.827Z,46.55
2023-02-14T22:48:38.126Z,45.70
2023-02-14T22:51:08.504Z,45.25
2023-02-14T22:53:36.000Z,44.70
2023-02-14T22:56:20.727Z,45.40
2023-02-14T22:58:48.591Z,46.33
2023-02-14T23:01:17.519Z,46.05
2023-02-14T23:03:45.471Z,45.03
2023-02-14T23:06:13.729Z,46.17
2023-02-14T23:08:43.005Z,45.70
2023-02-14T23:11:12.830Z,46.15
2023-02-14T23:13:59.272Z,46.28
2023-02-14T23:16:46.006Z,46.65
2023-02-14T23:19:34.080Z,44.72
2023-02-14T23:22:05.168Z,45.60
2023-02-14T23:24:32.525Z,47.90
2023-02-14T23:27:00.099Z,47.53
2023-02-14T23:29:27.452Z,49.28
2023-02-14T23:31:55.307Z,50.35
2023-02-14T23:34:26.629Z,50.63
2023-02-14T23:36:53.969Z,50.05
2023-02-14T23:39:21.336Z,48.83
2023-02-14T23:41:48.686Z,49.28
2023-02-14T23:44:19.877Z,49.03
2023-02-14T23:46:49.097Z,48.63
2023-02-14T23:49:17.028Z,49.43
2023-02-14T23:51:45.725Z,48.03
2023-02-14T23:54:13.586Z,50.00
2023-02-14T23:56:41.179Z,49.85
2023-02-14T23:59:09.345Z,50.78
